Time;durP1;ratioP1;P1;durP2;ratioP2;P2;SDS_P1;SDS_P2;PMS_P1;PMS_P2;Temp;Humidity;BMP_temperature;BMP_pressure;BME280_temperature;BME280_humidity;BME280_pressure;Samples;Min_cycle;Max_cycle;Signal;HPM_P1;HPM_P2
2022/03/01 00:00:06;;;;;;;8.55;4.03;;;;;;;3.91;48.82;102335.06;4917514;29;20052;-73
2022/03/01 00:02:40;;;;;;;7.90;4.15;;;;;;;3.82;48.40;102333.50;4934774;29;20063;-73
2022/03/01 00:05:08;;;;;;;8.23;3.83;;;;;;;3.71;48.67;102338.38;4934157;29;20407;-73
2022/03/01 00:07:36;;;;;;;6.45;3.38;;;;;;;3.79;48.71;102339.28;4934392;29;20055;-73
2022/03/01 00:10:05;;;;;;;10.70;4.55;;;;;;;3.81;47.85;102348.09;4934203;29;20056;-73
2022/03/01 00:12:33;;;;;;;9.65;5.07;;;;;;;3.80;48.72;102357.25;4934700;29;20063;-73
2022/03/01 00:15:01;;;;;;;8.73;4.13;;;;;;;3.76;47.86;102349.50;4934809;29;20058;-73
2022/03/01 00:17:29;;;;;;;8.35;4.13;;;;;;;3.76;47.31;102333.25;4934885;29;20044;-73
2022/03/01 00:19:57;;;;;;;9.00;4.10;;;;;;;3.88;46.79;102347.13;4934377;29;20499;-73
2022/03/01 00:22:25;;;;;;;6.90;3.95;;;;;;;3.76;46.75;102348.63;4934204;29;20048;-73
2022/03/01 00:24:53;;;;;;;6.72;4.15;;;;;;;3.72;47.40;102348.19;4934967;29;20495;-73
2022/03/01 00:27:23;;;;;;;13.68;4.80;;;;;;;3.75;46.43;102350.53;4917050;29;20537;-75
2022/03/01 00:29:51;;;;;;;8.63;3.92;;;;;;;3.72;46.78;102350.88;4934337;29;20051;-73
2022/03/01 00:32:19;;;;;;;7.80;4.28;;;;;;;3.62;46.14;102340.38;4935408;29;20044;-73
2022/03/01 00:34:47;;;;;;;7.50;3.90;;;;;;;3.67;46.61;102355.22;4937818;29;20079;-73
2022/03/01 00:37:15;;;;;;;7.47;3.90;;;;;;;3.60;46.17;102355.13;4937796;29;20052;-73
2022/03/01 00:39:43;;;;;;;7.90;4.00;;;;;;;3.53;46.88;102362.31;4938157;29;20058;-73
2022/03/01 00:42:11;;;;;;;8.73;4.40;;;;;;;3.48;47.36;102350.19;4938205;29;20071;-73
2022/03/01 00:44:40;;;;;;;7.18;3.45;;;;;;;3.43;46.83;102352.59;4938095;29;20051;-73
2022/03/01 00:47:08;;;;;;;8.38;4.70;;;;;;;3.47;46.69;102358.50;4937496;29;20136;-72
2022/03/01 00:49:36;;;;;;;10.77;4.78;;;;;;;3.49;47.62;102354.56;4937915;29;20043;-72
2022/03/01 00:52:05;;;;;;;9.23;4.47;;;;;;;3.39;47.06;102361.28;4937912;29;20060;-74
2022/03/01 00:54:33;;;;;;;8.20;4.30;;;;;;;3.42;47.32;102355.53;4937384;29;20040;-73
2022/03/01 00:57:02;;;;;;;5.45;4.03;;;;;;;3.32;48.01;102366.63;4937753;29;20052;-72
2022/03/01 00:59:30;;;;;;;7.18;4.20;;;;;;;3.23;46.98;102364.00;4937488;29;20488;-75
2022/03/01 01:01:57;;;;;;;7.63;4.18;;;;;;;3.27;47.51;102358.25;4937351;29;20059;-75
2022/03/01 01:04:26;;;;;;;5.55;3.85;;;;;;;3.26;47.92;102360.09;4937147;29;20051;-72
2022/03/01 01:06:53;;;;;;;7.47;3.80;;;;;;;3.23;47.61;102347.78;4937380;29;20059;-72
2022/03/01 01:09:21;;;;;;;7.53;4.13;;;;;;;3.31;47.80;102343.28;4937435;29;20407;-72
2022/03/01 01:11:49;;;;;;;11.93;5.30;;;;;;;3.34;48.31;102357.28;4937429;29;20051;-72
2022/03/01 01:14:17;;;;;;;7.18;4.85;;;;;;;3.29;48.54;102361.59;4920632;29;20055;-73
2022/03/01 01:16:46;;;;;;;6.85;4.32;;;;;;;3.33;48.53;102355.59;4937254;29;20502;-73
2022/03/01 01:19:14;;;;;;;6.70;4.18;;;;;;;3.30;48.41;102352.44;4937377;29;20056;-72
2022/03/01 01:24:28;;;;;;;6.28;4.30;;;;;;;3.36;48.00;102362.50;4937407;29;20078;-73
2022/03/01 01:26:56;;;;;;;7.03;4.15;;;;;;;3.39;48.49;102356.75;4937407;29;20074;-73
2022/03/01 01:29:24;;;;;;;7.60;4.63;;;;;;;3.41;47.81;102359.25;4936944;29;20056;-72
2022/03/01 01:31:52;;;;;;;7.20;4.32;;;;;;;3.39;48.19;102367.56;4936560;29;20056;-72
2022/03/01 01:34:20;;;;;;;8.40;4.47;;;;;;;3.41;48.75;102362.78;4937680;29;20052;-72
2022/03/01 01:36:47;;;;;;;8.02;4.25;;;;;;;3.43;49.46;102368.84;4936771;29;20047;-73
2022/03/01 01:39:17;;;;;;;7.47;4.15;;;;;;;3.57;48.25;102363.63;4936804;29;20056;-73
2022/03/01 01:41:45;;;;;;;9.75;4.22;;;;;;;3.54;48.37;102366.69;4936959;29;20056;-72
2022/03/01 01:44:13;;;;;;;7.28;4.55;;;;;;;3.57;47.40;102363.63;4936271;29;20483;-72
2022/03/01 01:46:41;;;;;;;6.47;4.70;;;;;;;3.60;47.32;102358.69;4936734;29;20052;-72
2022/03/01 01:49:09;;;;;;;7.60;4.38;;;;;;;3.56;47.16;102362.78;4936970;29;20079;-73
2022/03/01 01:51:37;;;;;;;8.23;4.20;;;;;;;3.52;47.36;102357.94;4936668;29;20052;-73
2022/03/01 01:54:06;;;;;;;10.18;4.63;;;;;;;3.44;47.68;102365.13;4937081;29;20435;-73
2022/03/01 01:56:34;;;;;;;10.63;4.97;;;;;;;3.42;47.15;102364.47;4937047;29;20056;-73
2022/03/01 01:59:02;;;;;;;8.27;3.72;;;;;;;3.46;47.22;102368.50;4936500;29;20048;-73
2022/03/01 02:01:30;;;;;;;7.78;4.22;;;;;;;3.41;48.31;102373.63;4936518;29;20118;-72
2022/03/01 02:04:01;;;;;;;6.28;4.18;;;;;;;3.30;48.08;102369.53;4936416;29;20058;-73
2022/03/01 02:06:29;;;;;;;7.03;3.80;;;;;;;3.28;47.61;102376.16;4936867;29;20067;-72
2022/03/01 02:08:58;;;;;;;6.82;3.72;;;;;;;3.32;47.60;102372.06;4936147;29;20068;-73
2022/03/01 02:11:26;;;;;;;5.60;3.80;;;;;;;3.22;46.91;102367.75;4936903;29;20504;-73
2022/03/01 02:13:54;;;;;;;6.72;3.92;;;;;;;3.19;48.42;102378.09;4936440;29;20058;-72
2022/03/01 02:16:22;;;;;;;6.82;4.13;;;;;;;3.08;47.27;102364.00;4936299;29;20051;-72
2022/03/01 02:18:50;;;;;;;8.43;3.92;;;;;;;3.09;46.13;102359.44;4919534;29;20048;-72
2022/03/01 02:21:18;;;;;;;6.07;3.88;;;;;;;3.06;46.26;102362.50;4936326;29;20048;-72
2022/03/01 02:23:46;;;;;;;5.45;4.00;;;;;;;3.03;46.87;102365.59;4936233;29;20525;-73
2022/03/01 02:26:14;;;;;;;7.57;3.88;;;;;;;2.98;47.41;102365.31;4936654;29;20048;-72
2022/03/01 02:28:42;;;;;;;8.50;4.55;;;;;;;3.05;47.71;102361.69;4919694;29;20051;-73
2022/03/01 02:31:10;;;;;;;6.97;4.13;;;;;;;3.01;46.86;102362.22;4936112;29;20058;-73
2022/03/01 02:33:38;;;;;;;7.35;4.45;;;;;;;2.93;46.69;102363.16;4936168;29;20052;-73
2022/03/01 02:36:06;;;;;;;7.97;4.05;;;;;;;2.83;47.77;102358.00;4936251;29;20048;-73
2022/03/01 02:38:34;;;;;;;6.10;3.78;;;;;;;2.88;50.21;102363.69;4919536;29;20059;-72
2022/03/01 02:41:02;;;;;;;9.40;5.03;;;;;;;2.79;50.33;102367.53;4923120;29;20059;-73
2022/03/01 02:43:30;;;;;;;6.50;4.40;;;;;;;2.73;51.32;102362.84;4919130;29;20048;-73
2022/03/01 02:45:57;;;;;;;6.13;3.50;;;;;;;2.61;51.38;102360.56;4918825;29;20511;-72
2022/03/01 02:48:25;;;;;;;10.32;4.72;;;;;;;2.58;51.88;102371.75;4935662;29;20063;-72
2022/03/01 02:50:53;;;;;;;9.90;4.43;;;;;;;2.54;52.09;102365.03;4935562;29;20047;-72
2022/03/01 02:53:22;;;;;;;10.77;4.47;;;;;;;2.46;52.32;102362.38;4935591;29;20064;-72
2022/03/01 02:55:50;;;;;;;8.65;4.38;;;;;;;2.45;53.21;102364.25;4918944;29;20055;-72
2022/03/01 02:58:18;;;;;;;8.73;4.78;;;;;;;2.48;53.08;102361.19;4935241;29;20055;-72
2022/03/01 03:00:48;;;;;;;9.35;4.35;;;;;;;2.36;53.64;102363.50;4935249;29;20055;-73
2022/03/01 03:03:16;;;;;;;7.82;4.43;;;;;;;2.22;53.41;102364.25;4935409;29;20052;-72
2022/03/01 03:05:44;;;;;;;8.00;4.35;;;;;;;2.08;53.50;102364.00;4935579;29;20059;-72
2022/03/01 03:08:12;;;;;;;9.40;4.72;;;;;;;2.21;53.90;102373.38;4935666;29;20055;-72
2022/03/01 03:10:42;;;;;;;8.15;4.50;;;;;;;2.35;53.26;102367.19;4935348;29;20055;-72
2022/03/01 03:13:10;;;;;;;8.10;4.57;;;;;;;2.27;53.09;102372.66;4935205;29;20048;-73
2022/03/01 03:15:38;;;;;;;8.32;4.20;;;;;;;1.99;54.45;102382.13;4935662;29;20048;-72
2022/03/01 03:18:06;;;;;;;7.40;4.28;;;;;;;1.85;54.34;102381.00;4935071;29;20067;-73
2022/03/01 03:20:34;;;;;;;6.85;3.97;;;;;;;1.81;54.26;102386.94;4935168;29;20047;-73
2022/03/01 03:23:02;;;;;;;9.57;4.15;;;;;;;1.69;54.78;102386.47;4935031;29;20067;-72
2022/03/01 03:25:30;;;;;;;8.43;4.57;;;;;;;1.55;55.61;102388.91;4934598;29;20407;-72
2022/03/01 03:27:59;;;;;;;9.15;4.90;;;;;;;1.56;55.65;102377.09;4935084;29;20056;-72
2022/03/01 03:30:27;;;;;;;10.38;4.65;;;;;;;1.39;57.49;102378.16;4934929;29;20051;-72
2022/03/01 03:32:55;;;;;;;7.70;4.57;;;;;;;1.26;56.69;102374.16;4935342;29;20050;-72
2022/03/01 03:35:23;;;;;;;7.07;4.20;;;;;;;1.13;57.07;102377.38;4934651;29;20083;-72
2022/03/01 03:37:51;;;;;;;7.40;3.75;;;;;;;1.05;56.91;102383.66;4934837;29;20054;-72
2022/03/01 03:40:19;;;;;;;8.63;4.45;;;;;;;1.01;57.75;102387.72;4934744;29;20044;-72
2022/03/01 03:42:47;;;;;;;7.40;4.25;;;;;;;1.40;57.35;102396.88;4935281;29;20399;-73
2022/03/01 03:45:15;;;;;;;7.85;4.53;;;;;;;1.59;54.98;102390.25;4935145;29;20058;-73
2022/03/01 03:47:43;;;;;;;8.05;4.10;;;;;;;1.64;55.15;102391.56;4935005;29;20074;-72
2022/03/01 03:50:12;;;;;;;4.68;3.72;;;;;;;1.61;54.54;102388.22;4934571;29;20047;-72
2022/03/01 03:52:40;;;;;;;7.85;4.20;;;;;;;1.38;56.11;102380.03;4934374;29;20055;-73
2022/03/01 03:55:10;;;;;;;6.28;4.10;;;;;;;1.18;56.15;102393.06;4934815;29;20058;-72
2022/03/01 03:57:40;;;;;;;8.52;4.57;;;;;;;1.01;57.42;102392.25;4934189;29;20078;-72
2022/03/01 04:00:15;;;;;;;7.05;4.07;;;;;;;0.89;58.01;102389.06;4934686;29;20052;-72
2022/03/01 04:02:45;;;;;;;7.93;4.70;;;;;;;0.94;59.33;102392.94;4934301;29;20052;-72
2022/03/01 04:05:15;;;;;;;10.02;4.63;;;;;;;1.08;60.44;102393.28;4935123;29;20055;-72
2022/03/01 04:07:44;;;;;;;9.95;5.30;;;;;;;1.08;61.46;102393.28;4934054;29;20059;-72
2022/03/01 04:10:14;;;;;;;10.10;5.20;;;;;;;1.15;61.91;102388.00;4934795;29;20043;-72
2022/03/01 04:12:42;;;;;;;11.48;5.05;;;;;;;1.31;62.93;102387.97;4934919;29;20048;-72
2022/03/01 04:15:11;;;;;;;16.80;4.97;;;;;;;1.29;62.35;102394.56;4934965;29;20040;-72
2022/03/01 04:17:40;;;;;;;12.00;5.57;;;;;;;1.18;63.14;102387.69;4934213;29;20529;-72
2022/03/01 04:20:09;;;;;;;9.95;4.75;;;;;;;1.12;62.69;102388.38;4934777;29;20442;-72
2022/03/01 04:22:37;;;;;;;10.90;4.78;;;;;;;1.11;62.96;102387.50;4934680;29;20403;-72
2022/03/01 04:25:07;;;;;;;13.10;4.97;;;;;;;1.13;64.30;102392.75;4934316;29;20052;-73
2022/03/01 04:27:35;;;;;;;9.27;5.22;;;;;;;1.38;63.81;102392.69;4933969;29;20498;-72
2022/03/01 04:30:07;;;;;;;10.15;5.32;;;;;;;1.40;63.20;102394.19;4934913;29;20403;-72
2022/03/01 04:32:35;;;;;;;10.30;5.95;;;;;;;1.24;64.92;102388.84;4934807;29;20051;-73
2022/03/01 04:35:04;;;;;;;10.70;4.75;;;;;;;1.17;64.60;102389.53;4934757;29;20047;-72
2022/03/01 04:37:34;;;;;;;9.85;5.50;;;;;;;1.32;65.12;102400.44;4934135;29;20399;-73
2022/03/01 04:40:07;;;;;;;9.48;4.55;;;;;;;1.16;65.45;102395.09;4934009;29;20078;-72
2022/03/01 04:42:35;;;;;;;9.77;4.97;;;;;;;1.03;65.88;102384.84;4934604;29;20043;-72
2022/03/01 04:45:05;;;;;;;13.80;5.57;;;;;;;1.15;65.86;102388.88;4934648;29;20047;-72
2022/03/01 04:47:33;;;;;;;10.57;5.15;;;;;;;1.24;65.72;102378.91;4933888;29;20043;-72
2022/03/01 04:50:01;;;;;;;10.00;5.35;;;;;;;1.27;65.57;102380.41;4934862;29;20131;-72
2022/03/01 04:52:29;;;;;;;11.82;5.30;;;;;;;1.23;66.44;102377.22;4933907;29;20415;-72
2022/03/01 04:54:57;;;;;;;9.13;5.32;;;;;;;1.22;66.64;102389.00;4917449;29;20049;-72
2022/03/01 04:57:24;;;;;;;9.95;5.22;;;;;;;1.08;67.42;102382.47;4934466;29;20415;-72
2022/03/01 04:59:53;;;;;;;12.57;5.45;;;;;;;0.88;67.85;102372.03;4934634;29;20052;-72
2022/03/01 05:02:21;;;;;;;9.38;5.40;;;;;;;0.77;68.24;102380.47;4934040;29;20060;-72
2022/03/01 05:04:49;;;;;;;10.93;5.47;;;;;;;0.77;68.67;102380.47;4933744;29;20067;-75
2022/03/01 05:07:18;;;;;;;11.40;5.22;;;;;;;0.64;69.42;102370.22;4934250;29;20055;-72
2022/03/01 05:09:46;;;;;;;13.55;5.80;;;;;;;0.48;69.04;102366.50;4934203;29;20051;-72
2022/03/01 05:12:13;;;;;;;10.02;5.65;;;;;;;0.41;69.62;102365.50;4934302;29;20055;-72
2022/03/01 05:14:41;;;;;;;10.77;6.10;;;;;;;0.46;69.59;102373.94;4934865;29;20052;-72
2022/03/01 05:17:09;;;;;;;15.18;6.00;;;;;;;0.37;70.34;102377.63;4933451;29;20052;-73
2022/03/01 05:19:37;;;;;;;12.70;6.32;;;;;;;0.28;70.52;102373.25;4936974;29;20055;-72
2022/03/01 05:22:06;;;;;;;12.10;6.50;;;;;;;0.28;69.66;102379.47;4937563;29;20047;-72
2022/03/01 05:24:36;;;;;;;10.70;5.20;;;;;;;0.22;70.01;102382.81;4937051;29;20054;-72
2022/03/01 05:27:04;;;;;;;26.30;6.32;;;;;;;0.19;70.08;102373.22;4937712;29;20054;-72
2022/03/01 05:29:31;;;;;;;9.75;5.57;;;;;;;0.23;70.17;102385.34;4937177;29;20537;-72
2022/03/01 05:31:59;;;;;;;10.73;5.30;;;;;;;0.14;69.87;102380.94;4920597;29;20051;-75
2022/03/01 05:34:28;;;;;;;10.27;5.03;;;;;;;0.15;69.89;102382.66;4937581;29;20044;-72
2022/03/01 05:36:56;;;;;;;11.13;6.78;;;;;;;0.28;68.82;102376.75;4936589;29;20503;-72
2022/03/01 05:39:23;;;;;;;12.95;6.55;;;;;;;0.43;67.71;102379.63;4936581;29;20051;-72
2022/03/01 05:41:51;;;;;;;11.70;5.95;;;;;;;0.41;69.11;102376.28;4937531;29;20129;-72
2022/03/01 05:44:20;;;;;;;13.00;6.45;;;;;;;0.25;69.21;102372.56;4936830;29;20056;-72
2022/03/01 05:46:49;;;;;;;9.95;5.90;;;;;;;0.15;69.02;102374.59;4937122;29;20051;-72
2022/03/01 05:49:17;;;;;;;10.43;5.80;;;;;;;0.02;69.17;102380.44;4936555;29;20379;-72
2022/03/01 05:51:45;;;;;;;9.55;5.18;;;;;;;0.03;69.44;102373.19;4937126;29;20051;-72
2022/03/01 05:54:13;;;;;;;12.82;5.60;;;;;;;0.16;69.53;102373.56;4936768;29;20051;-73
2022/03/01 05:56:41;;;;;;;11.25;5.63;;;;;;;0.18;69.82;102376.94;4936696;29;20407;-72
2022/03/01 05:59:09;;;;;;;10.30;5.32;;;;;;;0.28;70.05;102378.63;4936125;29;20060;-74
2022/03/01 06:01:37;;;;;;;11.20;6.43;;;;;;;0.29;71.19;102378.44;4937018;29;20391;-72
2022/03/01 06:04:05;;;;;;;11.40;5.35;;;;;;;0.32;70.73;102382.66;4936346;29;20048;-73
2022/03/01 06:06:33;;;;;;;11.63;7.03;;;;;;;0.20;71.58;102380.28;4936401;29;20054;-74
2022/03/01 06:09:04;;;;;;;10.45;6.40;;;;;;;0.23;71.53;102379.13;4936321;29;20051;-74
2022/03/01 06:11:32;;;;;;;13.65;6.63;;;;;;;0.21;71.68;102392.78;4936160;29;20048;-74
2022/03/01 06:14:00;;;;;;;11.93;6.13;;;;;;;0.39;71.07;102386.41;4919729;29;20063;-74
2022/03/01 06:16:28;;;;;;;8.98;5.65;;;;;;;0.33;71.99;102395.13;4936179;29;20403;-74
2022/03/01 06:18:56;;;;;;;15.02;6.38;;;;;;;0.26;72.21;102395.78;4923122;29;20056;-74
2022/03/01 06:21:24;;;;;;;10.32;6.00;;;;;;;0.47;71.73;102399.84;4936331;29;20055;-74
2022/03/01 06:23:52;;;;;;;12.73;6.35;;;;;;;0.47;72.82;102397.16;4936038;29;20054;-74
2022/03/01 06:26:20;;;;;;;10.55;5.97;;;;;;;0.40;72.19;102380.81;4936676;29;20052;-74
2022/03/01 06:28:50;;;;;;;12.32;6.63;;;;;;;0.58;71.22;102400.53;4919121;29;20047;-75
2022/03/01 06:31:21;;;;;;;13.45;6.43;;;;;;;0.76;70.82;102398.53;4936334;29;20051;-74
2022/03/01 06:33:54;;;;;;;10.18;5.90;;;;;;;0.92;70.10;102400.34;4919958;29;20565;-74
2022/03/01 06:36:23;;;;;;;12.00;6.05;;;;;;;1.14;69.11;102405.22;4936341;29;20395;-74
2022/03/01 06:38:52;;;;;;;12.45;6.78;;;;;;;1.44;67.68;102397.38;4935811;29;20052;-75
2022/03/01 06:41:20;;;;;;;9.00;5.53;;;;;;;1.74;66.97;102397.59;4935685;29;20054;-75
2022/03/01 06:43:48;;;;;;;13.70;6.43;;;;;;;1.97;66.58;102404.91;4936194;29;20040;-75
2022/03/01 06:46:16;;;;;;;14.30;6.80;;;;;;;1.98;65.36;102406.59;4935849;29;20071;-74
2022/03/01 06:48:44;;;;;;;15.82;6.85;;;;;;;2.11;65.59;102408.72;4935445;29;20059;-75
2022/03/01 06:51:14;;;;;;;13.60;7.18;;;;;;;2.24;65.08;102413.53;4922802;29;20044;-75
2022/03/01 06:53:42;;;;;;;11.18;6.40;;;;;;;2.39;64.35;102417.16;4935173;29;20151;-74
2022/03/01 06:56:10;;;;;;;11.90;6.03;;;;;;;2.47;63.89;102416.25;4935640;29;20524;-75
2022/03/01 06:58:38;;;;;;;12.85;6.45;;;;;;;2.90;63.69;102423.88;4935353;29;20051;-75
2022/03/01 07:01:07;;;;;;;12.07;6.88;;;;;;;3.25;61.42;102415.25;4935850;29;20384;-74
2022/03/01 07:03:35;;;;;;;14.18;6.93;;;;;;;3.39;60.95;102416.28;4934841;29;20060;-75
2022/03/01 07:06:03;;;;;;;16.30;7.07;;;;;;;3.78;60.02;102429.69;4917990;29;20495;-74
2022/03/01 07:08:32;;;;;;;10.93;6.40;;;;;;;3.58;59.77;102424.88;4935032;29;20047;-75
2022/03/01 07:11:00;;;;;;;14.35;7.78;;;;;;;3.58;59.56;102424.88;4918123;29;20055;-75
2022/03/01 07:13:28;;;;;;;14.18;7.50;;;;;;;4.18;58.06;102427.47;4935430;29;20054;-75
2022/03/01 07:15:56;;;;;;;19.30;7.38;;;;;;;4.17;57.01;102431.22;4935311;29;20499;-74
2022/03/01 07:18:25;;;;;;;12.38;7.10;;;;;;;4.53;56.25;102429.50;4918871;29;20058;-75
2022/03/01 07:20:53;;;;;;;13.18;6.97;;;;;;;4.73;55.88;102424.28;4935368;29;20066;-75
2022/03/01 07:23:20;;;;;;;13.63;6.80;;;;;;;4.86;54.62;102420.00;4934805;29;20072;-75
2022/03/01 07:25:48;;;;;;;12.13;6.63;;;;;;;4.88;54.44;102420.66;4935067;29;20079;-75
2022/03/01 07:28:16;;;;;;;14.02;6.75;;;;;;;5.32;53.05;102424.94;4935266;29;20394;-75
2022/03/01 07:30:44;;;;;;;13.00;7.15;;;;;;;5.54;51.26;102424.00;4934848;29;20399;-75
2022/03/01 07:33:12;;;;;;;13.05;7.50;;;;;;;5.41;51.72;102428.31;4918120;29;20043;-73
2022/03/01 07:35:40;;;;;;;10.88;6.53;;;;;;;5.53;51.25;102419.63;4934119;29;20502;-75
2022/03/01 07:38:08;;;;;;;13.98;7.20;;;;;;;6.03;50.80;102414.03;4934198;29;20055;-75
2022/03/01 07:40:36;;;;;;;14.95;7.00;;;;;;;6.44;50.60;102425.84;4934393;29;20055;-75
2022/03/01 07:43:03;;;;;;;11.82;6.93;;;;;;;6.16;50.89;102422.22;4934434;29;20402;-75
2022/03/01 07:45:31;;;;;;;13.20;7.45;;;;;;;6.20;50.99;102413.66;4934094;29;20601;-75
2022/03/01 07:48:01;;;;;;;20.90;8.20;;;;;;;6.84;48.09;102417.72;4935115;29;20055;-75
2022/03/01 07:50:31;;;;;;;14.93;7.95;;;;;;;7.20;48.65;102423.78;4934725;29;20055;-75
2022/03/01 07:52:59;;;;;;;18.48;7.60;;;;;;;7.45;49.09;102422.25;4934525;29;20051;-76
2022/03/01 07:55:29;;;;;;;17.83;7.13;;;;;;;7.28;47.18;102425.41;4934053;29;20380;-76
2022/03/01 07:57:57;;;;;;;14.68;6.82;;;;;;;7.43;46.75;102410.75;4934250;29;20406;-75
2022/03/01 08:00:25;;;;;;;12.15;6.32;;;;;;;7.60;45.91;102417.41;4934347;29;20058;-76
2022/03/01 08:02:53;;;;;;;13.00;6.50;;;;;;;7.56;46.69;102412.56;4934678;29;20084;-76
2022/03/01 08:05:22;;;;;;;10.73;6.30;;;;;;;7.63;46.37;102410.69;4934676;29;20491;-75
2022/03/01 08:07:56;;;;;;;13.18;6.78;;;;;;;7.82;46.76;102410.81;4934334;29;20050;-75
2022/03/01 08:10:25;;;;;;;11.65;6.30;;;;;;;7.96;46.47;102404.25;4934622;29;20040;-76
2022/03/01 08:12:54;;;;;;;10.38;6.03;;;;;;;7.90;45.71;102411.41;4917957;29;20047;-76
2022/03/01 08:15:26;;;;;;;9.80;5.97;;;;;;;7.89;46.05;102404.31;4934831;29;20044;-76
2022/03/01 08:17:56;;;;;;;13.65;6.00;;;;;;;8.26;44.42;102406.41;4934612;29;20055;-75
2022/03/01 08:20:25;;;;;;;11.50;5.75;;;;;;;8.65;43.52;102391.91;4934741;29;20775;-76
2022/03/01 08:22:57;;;;;;;9.70;6.00;;;;;;;8.69;43.19;102398.56;4934120;29;20495;-76
2022/03/01 08:25:25;;;;;;;12.95;6.47;;;;;;;9.24;42.60;102392.41;4934746;29;20039;-76
2022/03/01 08:27:53;;;;;;;7.93;5.28;;;;;;;9.25;41.76;102385.06;4934263;29;20051;-76
2022/03/01 08:30:21;;;;;;;8.85;5.40;;;;;;;9.22;42.45;102388.22;4933693;29;20066;-76
2022/03/01 08:32:49;;;;;;;8.80;5.72;;;;;;;9.38;41.06;102386.78;4933968;29;20082;-74
2022/03/01 08:35:17;;;;;;;8.50;4.72;;;;;;;9.00;41.96;102383.19;4934435;29;20044;-75
2022/03/01 08:37:45;;;;;;;9.02;5.18;;;;;;;9.22;40.48;102382.75;4934115;29;20052;-74
2022/03/01 08:40:14;;;;;;;13.48;4.97;;;;;;;9.06;40.50;102393.22;4934251;29;20051;-76
2022/03/01 08:42:42;;;;;;;7.72;4.47;;;;;;;9.32;40.49;102383.06;4934354;29;20043;-74
2022/03/01 08:45:10;;;;;;;13.13;5.60;;;;;;;9.44;39.59;102385.91;4933948;29;20048;-73
2022/03/01 08:47:41;;;;;;;10.02;5.20;;;;;;;9.35;39.03;102377.19;4934567;29;20035;-74
2022/03/01 08:50:09;;;;;;;7.35;5.28;;;;;;;9.52;40.13;102384.75;4934037;29;20519;-75
2022/03/01 08:52:58;;;;;;;8.95;5.30;;;;;;;9.64;39.90;102379.34;4934889;29;20074;-74
2022/03/01 08:55:27;;;;;;;12.88;5.75;;;;;;;9.59;39.52;102374.59;4938266;29;20047;-75
2022/03/01 08:57:56;;;;;;;10.15;6.35;;;;;;;8.76;41.22;102380.25;4937168;29;20055;-75
2022/03/01 09:00:24;;;;;;;9.82;6.50;;;;;;;9.10;41.56;102378.03;4937754;29;20056;-74
2022/03/01 09:02:52;;;;;;;8.07;5.10;;;;;;;9.42;39.87;102368.88;4919979;29;20055;-74
2022/03/01 09:05:20;;;;;;;8.80;4.43;;;;;;;9.03;39.64;102365.53;4937416;29;20062;-75
2022/03/01 09:07:48;;;;;;;7.63;4.75;;;;;;;9.29;38.51;102372.59;4937570;29;20052;-75
2022/03/01 09:10:22;;;;;;;7.32;4.32;;;;;;;9.75;38.26;102361.34;4937007;29;20055;-75
2022/03/01 09:12:54;;;;;;;8.43;4.82;;;;;;;10.02;36.55;102358.25;4937919;29;20475;-75
2022/03/01 09:15:23;;;;;;;7.35;4.30;;;;;;;9.99;36.56;102361.44;4937338;29;20051;-75
2022/03/01 09:17:51;;;;;;;6.13;4.10;;;;;;;10.24;36.69;102357.72;4937221;29;20486;-75
2022/03/01 09:20:19;;;;;;;8.77;5.00;;;;;;;10.30;33.79;102354.03;4937933;29;20490;-74
2022/03/01 09:22:47;;;;;;;13.30;6.57;;;;;;;10.38;35.77;102356.44;4937437;29;20395;-74
2022/03/01 09:25:15;;;;;;;8.25;4.82;;;;;;;10.16;35.19;102350.69;4936976;29;20495;-74
2022/03/01 09:27:43;;;;;;;8.38;5.90;;;;;;;9.75;35.94;102353.97;4936809;29;20399;-75
2022/03/01 09:30:12;;;;;;;7.70;5.25;;;;;;;10.07;35.65;102341.97;4937673;29;20051;-74
2022/03/01 09:32:40;;;;;;;7.32;5.13;;;;;;;9.98;35.09;102340.63;4937825;29;20040;-75
2022/03/01 09:35:08;;;;;;;7.25;5.75;;;;;;;10.26;35.23;102342.72;4936990;29;20055;-75
2022/03/01 09:37:37;;;;;;;10.52;5.15;;;;;;;10.65;33.81;102342.34;4937117;29;20074;-74
2022/03/01 09:40:07;;;;;;;8.07;5.30;;;;;;;10.53;33.69;102342.34;4937501;29;20082;-74
2022/03/01 09:42:35;;;;;;;14.02;8.55;;;;;;;10.59;33.51;102338.66;4937388;29;20059;-74
2022/03/01 09:45:03;;;;;;;8.27;4.95;;;;;;;10.86;34.36;102335.44;4937739;29;20048;-74
2022/03/01 09:47:34;;;;;;;8.18;5.70;;;;;;;10.80;31.96;102335.56;4937382;29;20430;-75
2022/03/01 09:50:04;;;;;;;6.53;4.70;;;;;;;10.27;32.64;102325.22;4937518;29;20066;-74
2022/03/01 09:52:32;;;;;;;7.32;4.30;;;;;;;10.56;32.26;102330.09;4937080;29;20058;-76
2022/03/01 09:55:00;;;;;;;5.82;4.70;;;;;;;10.58;33.49;102316.97;4937216;29;20060;-77
2022/03/01 09:57:27;;;;;;;9.93;5.22;;;;;;;9.97;32.29;102334.31;4936794;29;20125;-77
2022/03/01 09:59:56;;;;;;;9.88;4.90;;;;;;;10.02;32.17;102319.97;4936905;29;20059;-74
2022/03/01 10:02:38;;;;;;;8.10;5.32;;;;;;;10.36;34.20;102323.00;4936908;29;20061;-74
2022/03/01 10:05:06;;;;;;;8.38;4.88;;;;;;;10.31;32.44;102311.94;4924431;29;20059;-74
2022/03/01 10:07:35;;;;;;;8.82;4.60;;;;;;;10.67;33.31;102312.84;4936760;29;20036;-74
2022/03/01 10:10:07;;;;;;;9.88;5.90;;;;;;;11.15;33.39;102307.31;4935790;29;20067;-74
2022/03/01 10:12:36;;;;;;;10.77;5.43;;;;;;;11.11;31.52;102303.38;4936613;29;20052;-74
2022/03/01 10:15:10;;;;;;;10.02;4.55;;;;;;;11.25;32.14;102302.03;4936225;29;20059;-74
2022/03/01 10:17:41;;;;;;;9.40;4.88;;;;;;;11.73;31.06;102307.34;4919502;29;20065;-74
2022/03/01 10:20:11;;;;;;;8.63;4.53;;;;;;;10.86;31.77;102291.63;4935808;29;20056;-74
2022/03/01 10:22:48;;;;;;;9.90;4.95;;;;;;;11.13;31.23;102295.75;4936723;29;20040;-76
2022/03/01 10:25:22;;;;;;;10.00;4.90;;;;;;;10.44;31.51;102294.47;4936696;29;20043;-75
2022/03/01 10:27:52;;;;;;;10.52;4.60;;;;;;;10.77;31.57;102294.97;4936385;29;20059;-76
2022/03/01 10:30:32;;;;;;;9.15;5.00;;;;;;;11.00;32.50;102281.25;4919174;29;20106;-74
2022/03/01 10:33:13;;;;;;;8.02;5.35;;;;;;;11.50;31.56;102278.97;4936091;29;20050;-74
2022/03/01 10:35:56;;;;;;;6.22;4.80;;;;;;;11.97;29.55;102279.78;4936072;29;20062;-76
2022/03/01 10:38:25;;;;;;;7.65;4.60;;;;;;;11.83;30.17;102280.13;4935919;29;20440;-76
2022/03/01 10:40:58;;;;;;;10.80;4.72;;;;;;;11.95;30.16;102273.75;4936178;29;20048;-74
2022/03/01 10:43:27;;;;;;;6.93;5.10;;;;;;;12.16;29.35;102263.97;4919240;29;20431;-74
2022/03/01 10:45:56;;;;;;;8.90;5.10;;;;;;;11.87;31.16;102260.44;4936054;29;20067;-74
2022/03/01 10:48:34;;;;;;;6.72;5.03;;;;;;;12.01;30.35;102261.78;4936127;29;20047;-74
2022/03/01 10:51:11;;;;;;;7.47;4.82;;;;;;;11.58;29.90;102254.97;4935283;29;20060;-74
2022/03/01 10:53:41;;;;;;;8.25;4.43;;;;;;;11.09;31.60;102240.59;4936606;29;20047;-74
2022/03/01 10:56:11;;;;;;;9.05;4.72;;;;;;;11.52;29.92;102254.88;4935618;29;20048;-74
2022/03/01 10:58:41;;;;;;;7.28;4.93;;;;;;;11.44;31.06;102241.53;4935385;29;20060;-74
2022/03/01 11:01:10;;;;;;;6.25;4.28;;;;;;;11.45;30.93;102243.22;4936031;29;20048;-74
2022/03/01 11:03:39;;;;;;;8.07;4.68;;;;;;;11.79;29.54;102235.06;4935595;29;20058;-76
2022/03/01 11:06:10;;;;;;;8.50;5.00;;;;;;;11.80;29.89;102228.50;4935792;29;20044;-73
2022/03/01 11:08:41;;;;;;;9.10;5.07;;;;;;;11.81;30.70;102227.44;4935886;29;20040;-74
2022/03/01 11:11:10;;;;;;;6.00;4.80;;;;;;;11.09;31.01;102212.38;4935232;29;20048;-73
2022/03/01 11:13:44;;;;;;;7.13;4.55;;;;;;;11.45;31.24;102198.53;4935201;29;20055;-74
2022/03/01 11:16:31;;;;;;;7.80;4.90;;;;;;;11.68;29.78;102194.81;4935325;29;20063;-74
2022/03/01 11:19:14;;;;;;;10.50;5.00;;;;;;;11.75;29.51;102197.41;4922697;29;20176;-76
2022/03/01 11:21:47;;;;;;;6.82;4.85;;;;;;;11.80;29.82;102187.38;4934530;29;20058;-74
2022/03/01 11:24:21;;;;;;;8.13;4.93;;;;;;;12.26;29.32;102174.66;4935516;29;20063;-74
2022/03/01 11:26:49;;;;;;;8.68;4.78;;;;;;;12.22;28.55;102160.59;4934954;29;20071;-74
2022/03/01 11:29:18;;;;;;;8.18;4.75;;;;;;;12.22;29.58;102155.94;4941581;29;20043;-74
2022/03/01 11:31:59;;;;;;;18.00;6.88;;;;;;;12.17;28.93;102149.53;4941588;29;20047;-74
2022/03/01 11:34:27;;;;;;;11.85;5.25;;;;;;;12.25;27.89;102146.34;4923467;29;20055;-74
2022/03/01 11:36:57;;;;;;;15.68;5.78;;;;;;;12.26;28.74;102150.75;4935169;29;20048;-75
2022/03/01 11:39:34;;;;;;;8.55;4.82;;;;;;;11.75;28.77;102142.56;4934138;29;20052;-74